AirNav   MODERNIZE NOT PRIVATIZE ATC
 
 950 users online  

4NK3 Evans Airways Airport
Evans, New York, USA

GOING TO EVANS?


FAA INFORMATION EFFECTIVE 20 JULY 2017

Location

FAA Identifier: 4NK3
Lat/Long: 42-40-21.0000N / 078-58-01.1300W
42-40.350000N / 078-58.018833W
42.6725000 / -78.9669806
(estimated)
Elevation: 940 ft. / 287 m (estimated)
Variation: 10W (1995)
From city: 4 miles E of EVANS, NY
Time zone: UTC -4 (UTC -5 during Standard Time)
Zip code: 14006

Airport Operations

Airport use: Private use. Permission required prior to landing
Activation date: 02/1999
Control tower: no
ARTCC: CLEVELAND CENTER
FSS: BUFFALO FLIGHT SERVICE STATION
Attendance: UNATNDD
Wind indicator: yes
Segmented circle: no

Airport Communications

WX ASOS at DKK (17 nm SW): 119.275 (716-366-7664)
WX ASOS at BUF (19 nm NE): PHONE 716-635-0532

Nearby radio navigation aids

VOR radial/distance  VOR name  Freq  Var
DKKr058/17.4DUNKIRK VORTAC116.2007W
BUFr231/20.9BUFFALO VOR/DME116.4008W
JHWr020/29.8JAMESTOWN VOR/DME114.7007W

 
NDB name  Hdg/Dist  Freq  Var  ID
PLAZZ218/13.820409WGB --. -...

Airport Services

Runway Information

Helipad H1

Dimensions: 50 x 50 ft. / 15 x 15 m
Surface: asphalt
Traffic pattern: leftleft

Runway 10/28

Dimensions: 2000 x 30 ft. / 610 x 9 m
Surface: turf
RUNWAY 10  RUNWAY 28
Traffic pattern: leftleft
Obstructions: none60 ft. pline, 1000 ft. from runway

Airport Ownership and Management from official FAA records

Ownership: Privately-owned
Owner: W J MILLIGAN
4995 SOUTHWESTERN BLVD
HAMBURG, NY 14075
Phone 716-648-5100
Manager: J M PRODUCTIONS INC
4995 SOUTHWESTERN BLVD
HAMBURG, NY 14075
Phone 716-648-5100
FACILITY LEASED TO ERIE COUNTY SHERIFF'S DEPT., 40 DELAWARE AVE, BUFFALO, NY.

Airport Operational Statistics

Aircraft based on the field: 4
Single engine airplanes: 2
Helicopters: 2
    

Instrument Procedures

There are no published instrument procedures at 4NK3.

Some nearby airports with instrument procedures:

9G0 - Buffalo Airfield (16 nm NE)
KDKK - Chautauqua County/Dunkirk Airport (17 nm SW)
KBUF - Buffalo Niagara International Airport (19 nm NE)
KIAG - Niagara Falls International Airport (26 nm N)
0G0 - North Buffalo Suburban Airport (28 nm NE)
 
Loc | Ops | Rwys | IFR | FBO | Links
Com | Nav | Svcs | Stats | Notes


 
Area around 4NK3 (Evans Airways Airport)
 
Road maps at: MapQuest Bing Google
 
Aerial photo
No photo
 
Sectional chart

 
Airport distance calculator
Flying to Evans Airways Airport? Find the distance to fly.

From to 4NK3

Sunrise and sunset
Times for 22-Jul-2017
 Local
(UTC-4)
 Zulu
(UTC)
Morning civil twilight05:2509:25
Sunrise05:5909:59
Sunset20:4600:46
Evening civil twilight21:1901:19

Current date and time
Zulu (UTC)  22-Jul-2017 13:37:08
Local (UTC-4)  22-Jul-2017 09:37:08
 
METAR
CWPC 
17nm NW 
221300Z AUTO 17002KT 23/19 RMK AO1 SLP127 T02250192 51002
KDKK 
17nm SW 
221253Z AUTO 10003KT 10SM SCT110 22/18 A2991 RMK AO2 SLP124 T02170183 $
KBUF 
19nm NE 
221254Z 18003KT 10SM SCT130 BKN160 OVC200 22/18 A2991 RMK AO2 SLP125 T02220178
KIAG 
27nm N 
221253Z 00000KT 10SM FEW055 23/17 A2991 RMK AO2 SLP123 T02330172
CYSN 
32nm N 
221300Z VRB02KT 15SM OVC120 22/18 A2989 RMK AC8 SLP122 DENSITY ALT 1200FT
TAF
KBUF 
19nm NE 
221120Z 2212/2312 18005KT P6SM BKN170 FM221300 00000KT P6SM VCSH OVC090 FM221800 25004KT P6SM VCSH OVC060 FM222000 16007KT P6SM VCSH OVC090 FM222300 11008KT P6SM OVC080 FM230600 09004KT P6SM BKN050
NOTAMs
Click for the latest NOTAMs
NOTAMs are issued by the DoD/FAA and will open in a separate window not controlled by AirNav.

 

 
 

Would you like to see your business listed on this page?

 If your business provides an interesting product or service to pilots, flight crews, aircraft, or users of the Evans Airways Airport, you should consider listing it here.  To start the listing process, click on the button below
 
Add a business
 

Other Pages about Evans Airways Airport

Update a link
 
Copyright © AirNav, LLC. All rights reserved. Privacy Policy  Contact